Mega Smeralda — ICIU — position and weather

sailwx.info

Track history (hours):
 
Tides and Currents Weather Stations Pressure Air Temp Water Temp Dewpoint Dewpoint Depression Visibility Wind Speed Wind Dir Waves Ship Positions

Mega Smeralda

Last reported at 2017-Feb-24 21:19 UTC. Time now 2017-Feb-24 21:35 UTC.
Position N 43°09' E 009°09'.

Length 171 m; draft 6.5 m.

Type: Passenger vessel. MMSI: 247228600.

Date/timePositionNaut miles runAvg speedWind from/ knotsBaromVisibWave heightAir tempDewpointWater temp
2017-Feb-24 21:19N 43°09' E 009°09'1418.8
2017-Feb-24 20:34N 43°04' E 009°27'33 5.5
2017-Feb-24 14:30N 43°16' E 008°44'1920.1
2017-Feb-24 13:33N 43°23' E 008°19'2020.0
2017-Feb-24 12:33N 43°30' E 007°54'2019.7
2017-Feb-24 11:33N 43°36' E 007°28'9 9.4
2017-Feb-24 10:33N 43°42' E 007°17'1414.4
2017-Feb-24 09:33N 43°29' E 007°09'2920.3
2017-Feb-24 08:06N 43°07' E 006°42'3216.5
2017-Feb-24 06:09N 43°04' E 005°58'3 5.2
2017-Feb-24 05:34N 43°07' E 005°56'3911.9
2017-Feb-24 02:14N 42°58' E 006°48'1218.5
2017-Feb-24 01:33N 42°59' E 007°05'1818.4
2017-Feb-24 00:33N 42°60' E 007°31'1918.8
2017-Feb-23 23:33N 43°00' E 007°56'1918.9
2017-Feb-23 22:33N 43°01' E 008°22'1918.8
2017-Feb-23 21:33N 43°03' E 008°48'1918.5
2017-Feb-23 20:33N 43°04' E 009°13'142 5.9
2017-Feb-22 20:17N 43°04' E 005°58'3 4.2
2017-Feb-22 19:33N 43°07' E 005°56'0 0.0
2017-Feb-22 18:34N 43°07' E 005°56'0 0.0
2017-Feb-22 17:34N 43°07' E 005°56'0 0.0
2017-Feb-22 16:34N 43°07' E 005°56'0 0.0
2017-Feb-22 15:33N 43°07' E 005°56'0 0.0
2017-Feb-22 14:34N 43°07' E 005°56'0 0.0
2017-Feb-22 13:34N 43°07' E 005°56'0 0.0
2017-Feb-22 12:33N 43°07' E 005°56'0 0.0
2017-Feb-22 11:33N 43°07' E 005°56'0 0.0
2017-Feb-22 10:34N 43°07' E 005°56'0 0.0
2017-Feb-22 09:33N 43°07' E 005°56'0 0.0
2017-Feb-22 08:34N 43°07' E 005°56'0 0.0
2017-Feb-22 07:31N 43°07' E 005°56'0 0.0
2017-Feb-22 06:31N 43°07' E 005°56'2 1.9
2017-Feb-22 05:33N 43°05' E 005°57'4016.7
2017-Feb-22 03:10N 42°58' E 006°51'1317.8
2017-Feb-22 02:27N 42°58' E 007°08'1617.4
2017-Feb-22 01:32N 42°60' E 007°30'7117.3
2017-Feb-21 21:25N 43°03' E 009°07'1517.2
2017-Feb-21 20:33N 43°04' E 009°27'153 6.4
2017-Feb-20 20:33N 43°04' E 005°58'4 3.5
2017-Feb-20 19:34N 43°07' E 005°56'0 0.0
2017-Feb-20 18:34N 43°07' E 005°56'0 0.0
2017-Feb-20 17:31N 43°07' E 005°56'0 0.0
2017-Feb-20 16:31N 43°07' E 005°56'0 0.0
2017-Feb-20 15:31N 43°07' E 005°56'0 0.0
2017-Feb-20 14:31N 43°07' E 005°56'0 0.0
2017-Feb-20 13:31N 43°07' E 005°56'0 0.0
2017-Feb-20 12:31N 43°07' E 005°56'0 0.0
2017-Feb-20 11:31N 43°07' E 005°56'0 0.0
2017-Feb-20 10:31N 43°07' E 005°56'0 0.0
2017-Feb-20 09:33N 43°07' E 005°56'0 0.0
2017-Feb-20 08:33N 43°07' E 005°56'0 0.0
2017-Feb-20 07:33N 43°07' E 005°56'0 0.0
2017-Feb-20 06:32N 43°07' E 005°56'2 2.1
2017-Feb-20 05:33N 43°05' E 005°57'3716.0
2017-Feb-20 03:15N 42°58' E 006°47'1417.7
2017-Feb-20 02:30N 42°59' E 007°05'1717.6
2017-Feb-20 01:33N 43°00' E 007°28'7317.5
2017-Feb-19 21:21N 43°04' E 009°08'1417.9
2017-Feb-19 20:33N 43°04' E 009°27'1717.2
2017-Feb-19 19:33N 42°47' E 009°34'6 2.9
2017-Feb-19 17:29N 42°42' E 009°29'1415.2
2017-Feb-19 16:33N 42°51' E 009°44'1716.7
2017-Feb-19 15:34N 43°03' E 009°59'1717.2
2017-Feb-19 14:34N 43°20' E 010°07'1514.7
2017-Feb-19 13:34N 43°32' E 010°17'1 1.0
2017-Feb-19 12:34N 43°33' E 010°18'0 0.0
2017-Feb-19 11:34N 43°33' E 010°18'1110.8
2017-Feb-19 10:34N 43°24' E 010°10'1716.6
2017-Feb-19 09:34N 43°08' E 010°02'1616.0
2017-Feb-19 08:33N 42°55' E 009°50'9812.1
2017-Feb-19 00:25N 42°59' E 007°36'7118.1
2017-Feb-18 20:28N 43°04' E 005°59'4 3.9
2017-Feb-18 19:33N 43°07' E 005°56'0 0.0
2017-Feb-18 18:33N 43°07' E 005°56'0 0.0
2017-Feb-18 17:33N 43°07' E 005°56'0 0.0
2017-Feb-18 16:33N 43°07' E 005°56'0 0.0
2017-Feb-18 15:33N 43°07' E 005°56'0 0.0
2017-Feb-18 14:33N 43°07' E 005°56'0 0.0
2017-Feb-18 13:33N 43°07' E 005°56'0 0.0
2017-Feb-18 12:33N 43°07' E 005°56'0 0.0
2017-Feb-18 11:33N 43°07' E 005°56'0 0.0
2017-Feb-18 10:33N 43°07' E 005°56'0 0.0
2017-Feb-18 09:33N 43°07' E 005°56'0 0.0
2017-Feb-18 08:33N 43°07' E 005°56'0 0.0
2017-Feb-18 07:33N 43°07' E 005°56'0 0.0
2017-Feb-18 06:33N 43°07' E 005°56'5312.8
2017-Feb-18 02:25N 42°59' E 007°08'1516.9
2017-Feb-18 01:32N 43°00' E 007°28'8617.3
2017-Feb-17 20:33N 43°04' E 009°26'152 6.2
2017-Feb-16 20:12N 43°04' E 005°58'3 4.5
2017-Feb-16 19:33N 43°07' E 005°56'0 0.0
2017-Feb-16 18:33N 43°07' E 005°56'0 0.0
2017-Feb-16 17:33N 43°07' E 005°56'0 0.0
2017-Feb-16 16:33N 43°07' E 005°56'0 0.0
2017-Feb-16 15:33N 43°07' E 005°56'0 0.0
2017-Feb-16 14:33N 43°07' E 005°56'0 0.0
2017-Feb-16 13:33N 43°07' E 005°56'0 0.0
2017-Feb-16 12:33N 43°07' E 005°56'0 0.0
2017-Feb-16 11:33N 43°07' E 005°56'0 0.0
2017-Feb-16 10:33N 43°07' E 005°56'0 0.0
2017-Feb-16 09:33N 43°07' E 005°56'0 0.0
2017-Feb-16 08:33N 43°07' E 005°56'0 0.0
2017-Feb-16 07:33N 43°07' E 005°56'0 0.0
2017-Feb-16 06:33N 43°07' E 005°56'2 2.4
2017-Feb-16 05:33N 43°05' E 005°58'3615.4
2017-Feb-16 03:13N 42°58' E 006°47'1217.3
2017-Feb-16 02:30N 42°59' E 007°03'1617.4
2017-Feb-16 01:33N 42°60' E 007°26'1717.3
2017-Feb-16 00:33N 43°01' E 007°49'1717.5
2017-Feb-15 23:33N 43°01' E 008°13'1717.3
2017-Feb-15 22:33N 43°03' E 008°37'1717.2
2017-Feb-15 21:33N 43°03' E 009°00'1817.7
2017-Feb-15 20:33N 43°05' E 009°25'1716.2
2017-Feb-15 19:32N 42°50' E 009°35'  
Track history (hours):
 
Tides and Currents Weather Stations Pressure Air Temp Water Temp Dewpoint Dewpoint Depression Visibility Wind Speed Wind Dir Waves Ship Positions

Mega Smeralda

Last reported at 2017-Feb-24 21:19 UTC. Time now 2017-Feb-24 21:35 UTC.
Position N 43°09' E 009°09'.

Length 171 m; draft 6.5 m.

Type: Passenger vessel. MMSI: 247228600.

Date/timePositionNaut miles runAvg speedWind from/ knotsBaromVisibWave heightAir tempDewpointWater temp
2017-Feb-24 21:19N 43°09' E 009°09'1418.8
2017-Feb-24 20:34N 43°04' E 009°27'33 5.5
2017-Feb-24 14:30N 43°16' E 008°44'1920.1
2017-Feb-24 13:33N 43°23' E 008°19'2020.0
2017-Feb-24 12:33N 43°30' E 007°54'2019.7
2017-Feb-24 11:33N 43°36' E 007°28'9 9.4
2017-Feb-24 10:33N 43°42' E 007°17'1414.4
2017-Feb-24 09:33N 43°29' E 007°09'2920.3
2017-Feb-24 08:06N 43°07' E 006°42'3216.5
2017-Feb-24 06:09N 43°04' E 005°58'3 5.2
2017-Feb-24 05:34N 43°07' E 005°56'3911.9
2017-Feb-24 02:14N 42°58' E 006°48'1218.5
2017-Feb-24 01:33N 42°59' E 007°05'1818.4
2017-Feb-24 00:33N 42°60' E 007°31'1918.8
2017-Feb-23 23:33N 43°00' E 007°56'1918.9
2017-Feb-23 22:33N 43°01' E 008°22'1918.8
2017-Feb-23 21:33N 43°03' E 008°48'1918.5
2017-Feb-23 20:33N 43°04' E 009°13'142 5.9
2017-Feb-22 20:17N 43°04' E 005°58'3 4.2
2017-Feb-22 19:33N 43°07' E 005°56'0 0.0
2017-Feb-22 18:34N 43°07' E 005°56'0 0.0
2017-Feb-22 17:34N 43°07' E 005°56'0 0.0
2017-Feb-22 16:34N 43°07' E 005°56'0 0.0
2017-Feb-22 15:33N 43°07' E 005°56'0 0.0
2017-Feb-22 14:34N 43°07' E 005°56'0 0.0
2017-Feb-22 13:34N 43°07' E 005°56'0 0.0
2017-Feb-22 12:33N 43°07' E 005°56'0 0.0
2017-Feb-22 11:33N 43°07' E 005°56'0 0.0
2017-Feb-22 10:34N 43°07' E 005°56'0 0.0
2017-Feb-22 09:33N 43°07' E 005°56'0 0.0
2017-Feb-22 08:34N 43°07' E 005°56'0 0.0
2017-Feb-22 07:31N 43°07' E 005°56'0 0.0
2017-Feb-22 06:31N 43°07' E 005°56'2 1.9
2017-Feb-22 05:33N 43°05' E 005°57'4016.7
2017-Feb-22 03:10N 42°58' E 006°51'1317.8
2017-Feb-22 02:27N 42°58' E 007°08'1617.4
2017-Feb-22 01:32N 42°60' E 007°30'7117.3
2017-Feb-21 21:25N 43°03' E 009°07'1517.2
2017-Feb-21 20:33N 43°04' E 009°27'153 6.4
2017-Feb-20 20:33N 43°04' E 005°58'4 3.5
2017-Feb-20 19:34N 43°07' E 005°56'0 0.0
2017-Feb-20 18:34N 43°07' E 005°56'0 0.0
2017-Feb-20 17:31N 43°07' E 005°56'0 0.0
2017-Feb-20 16:31N 43°07' E 005°56'0 0.0
2017-Feb-20 15:31N 43°07' E 005°56'0 0.0
2017-Feb-20 14:31N 43°07' E 005°56'0 0.0
2017-Feb-20 13:31N 43°07' E 005°56'0 0.0
2017-Feb-20 12:31N 43°07' E 005°56'0 0.0
2017-Feb-20 11:31N 43°07' E 005°56'0 0.0
2017-Feb-20 10:31N 43°07' E 005°56'0 0.0
2017-Feb-20 09:33N 43°07' E 005°56'0 0.0
2017-Feb-20 08:33N 43°07' E 005°56'0 0.0
2017-Feb-20 07:33N 43°07' E 005°56'0 0.0
2017-Feb-20 06:32N 43°07' E 005°56'2 2.1
2017-Feb-20 05:33N 43°05' E 005°57'3716.0
2017-Feb-20 03:15N 42°58' E 006°47'1417.7
2017-Feb-20 02:30N 42°59' E 007°05'1717.6
2017-Feb-20 01:33N 43°00' E 007°28'7317.5
2017-Feb-19 21:21N 43°04' E 009°08'1417.9
2017-Feb-19 20:33N 43°04' E 009°27'1717.2
2017-Feb-19 19:33N 42°47' E 009°34'6 2.9
2017-Feb-19 17:29N 42°42' E 009°29'1415.2
2017-Feb-19 16:33N 42°51' E 009°44'1716.7
2017-Feb-19 15:34N 43°03' E 009°59'1717.2
2017-Feb-19 14:34N 43°20' E 010°07'1514.7
2017-Feb-19 13:34N 43°32' E 010°17'1 1.0
2017-Feb-19 12:34N 43°33' E 010°18'0 0.0
2017-Feb-19 11:34N 43°33' E 010°18'1110.8
2017-Feb-19 10:34N 43°24' E 010°10'1716.6
2017-Feb-19 09:34N 43°08' E 010°02'1616.0
2017-Feb-19 08:33N 42°55' E 009°50'9812.1
2017-Feb-19 00:25N 42°59' E 007°36'7118.1
2017-Feb-18 20:28N 43°04' E 005°59'4 3.9
2017-Feb-18 19:33N 43°07' E 005°56'0 0.0
2017-Feb-18 18:33N 43°07' E 005°56'0 0.0
2017-Feb-18 17:33N 43°07' E 005°56'0 0.0
2017-Feb-18 16:33N 43°07' E 005°56'0 0.0
2017-Feb-18 15:33N 43°07' E 005°56'0 0.0
2017-Feb-18 14:33N 43°07' E 005°56'0 0.0
2017-Feb-18 13:33N 43°07' E 005°56'0 0.0
2017-Feb-18 12:33N 43°07' E 005°56'0 0.0
2017-Feb-18 11:33N 43°07' E 005°56'0 0.0
2017-Feb-18 10:33N 43°07' E 005°56'0 0.0
2017-Feb-18 09:33N 43°07' E 005°56'0 0.0
2017-Feb-18 08:33N 43°07' E 005°56'0 0.0
2017-Feb-18 07:33N 43°07' E 005°56'0 0.0
2017-Feb-18 06:33N 43°07' E 005°56'5312.8
2017-Feb-18 02:25N 42°59' E 007°08'1516.9
2017-Feb-18 01:32N 43°00' E 007°28'8617.3
2017-Feb-17 20:33N 43°04' E 009°26'152 6.2
2017-Feb-16 20:12N 43°04' E 005°58'3 4.5
2017-Feb-16 19:33N 43°07' E 005°56'0 0.0
2017-Feb-16 18:33N 43°07' E 005°56'0 0.0
2017-Feb-16 17:33N 43°07' E 005°56'0 0.0
2017-Feb-16 16:33N 43°07' E 005°56'0 0.0
2017-Feb-16 15:33N 43°07' E 005°56'0 0.0
2017-Feb-16 14:33N 43°07' E 005°56'0 0.0
2017-Feb-16 13:33N 43°07' E 005°56'0 0.0
2017-Feb-16 12:33N 43°07' E 005°56'0 0.0
2017-Feb-16 11:33N 43°07' E 005°56'0 0.0
2017-Feb-16 10:33N 43°07' E 005°56'0 0.0
2017-Feb-16 09:33N 43°07' E 005°56'0 0.0
2017-Feb-16 08:33N 43°07' E 005°56'0 0.0
2017-Feb-16 07:33N 43°07' E 005°56'0 0.0
2017-Feb-16 06:33N 43°07' E 005°56'2 2.4
2017-Feb-16 05:33N 43°05' E 005°58'3615.4
2017-Feb-16 03:13N 42°58' E 006°47'1217.3
2017-Feb-16 02:30N 42°59' E 007°03'1617.4
2017-Feb-16 01:33N 42°60' E 007°26'1717.3
2017-Feb-16 00:33N 43°01' E 007°49'1717.5
2017-Feb-15 23:33N 43°01' E 008°13'1717.3
2017-Feb-15 22:33N 43°03' E 008°37'1717.2
2017-Feb-15 21:33N 43°03' E 009°00'1817.7
2017-Feb-15 20:33N 43°05' E 009°25'1716.2
2017-Feb-15 19:32N 42°50' E 009°35'  

Dump ship's entire track history